Time;durP1;ratioP1;P1;durP2;ratioP2;P2;SDS_P1;SDS_P2;PMS_P1;PMS_P2;Temp;Humidity;BMP_temperature;BMP_pressure;BME280_temperature;BME280_humidity;BME280_pressure;Samples;Min_cycle;Max_cycle;Signal;HPM_P1;HPM_P2
2023/04/03 00:00:06;;;;;;;4.50;2.40;;;;;;;4.66;100.00;102979.56;5081662;28;20050;-80
2023/04/03 00:02:32;;;;;;;8.20;1.83;;;;;;;4.64;100.00;102970.78;5082322;28;20107;-80
2023/04/03 00:04:57;;;;;;;5.40;1.77;;;;;;;4.64;100.00;102984.13;5069956;28;20359;-80
2023/04/03 00:07:23;;;;;;;3.65;1.60;;;;;;;4.59;100.00;102981.72;5074556;28;20116;-80
2023/04/03 00:09:48;;;;;;;3.90;1.55;;;;;;;4.58;100.00;102982.69;5082153;28;20025;-80
2023/04/03 00:12:13;;;;;;;4.75;1.50;;;;;;;4.57;100.00;102986.28;5081704;28;20033;-82
2023/04/03 00:14:39;;;;;;;5.88;1.73;;;;;;;4.58;100.00;102988.03;5081842;28;20052;-82
2023/04/03 00:17:04;;;;;;;2.40;1.30;;;;;;;4.56;100.00;102981.91;5079451;28;20033;-80
2023/04/03 00:19:30;;;;;;;4.30;1.60;;;;;;;4.56;100.00;102981.91;5081947;28;20033;-80
2023/04/03 00:21:55;;;;;;;4.18;1.52;;;;;;;4.56;100.00;102983.72;5081502;28;20029;-80
2023/04/03 00:24:20;;;;;;;5.95;1.98;;;;;;;4.53;100.00;102990.09;5079213;28;20139;-81
2023/04/03 00:26:46;;;;;;;5.85;1.73;;;;;;;4.49;100.00;102987.69;5040039;28;1096587;-79
2023/04/03 00:29:11;;;;;;;4.97;1.60;;;;;;;4.49;100.00;102980.53;5080562;28;20120;-80
2023/04/03 00:31:36;;;;;;;8.95;1.73;;;;;;;4.47;100.00;102979.78;5066663;28;20090;-80
2023/04/03 00:34:02;;;;;;;4.35;1.65;;;;;;;4.42;100.00;102987.19;5059752;28;20083;-78
2023/04/03 00:36:27;;;;;;;5.05;2.33;;;;;;;4.45;100.00;102981.69;5059597;28;20036;-77
2023/04/03 00:38:53;;;;;;;3.50;1.50;;;;;;;4.43;100.00;102983.56;5074303;28;20028;-78
2023/04/03 00:41:18;;;;;;;5.40;1.70;;;;;;;4.39;100.00;102982.03;5074283;28;20035;-77
2023/04/03 00:43:44;;;;;;;3.75;1.70;;;;;;;4.41;100.00;102982.81;5094159;28;20039;-78
2023/04/03 00:46:10;;;;;;;5.57;1.55;;;;;;;4.38;100.00;102981.16;5097926;28;20039;-79
2023/04/03 00:48:41;;;;;;;6.88;1.85;;;;;;;4.40;100.00;102981.09;5080464;28;20024;-82
2023/04/03 00:51:10;;;;;;;4.93;1.65;;;;;;;4.33;100.00;102977.06;5079746;28;20084;-79
2023/04/03 00:53:40;;;;;;;4.32;1.50;;;;;;;4.31;100.00;102994.94;5078115;28;20024;-81
2023/04/03 00:56:08;;;;;;;3.78;1.73;;;;;;;4.29;100.00;102983.50;5079228;28;20025;-81
2023/04/03 00:58:35;;;;;;;;;;;;;;;4.29;100.00;102991.50;5078167;28;20059;-81
2023/04/03 01:01:03;;;;;;;4.82;1.77;;;;;;;4.24;100.00;102997.13;5052322;28;19912;-82
2023/04/03 01:03:31;;;;;;;3.95;1.90;;;;;;;4.16;100.00;102986.00;5084463;28;20028;-80
2023/04/03 01:05:56;;;;;;;6.47;1.57;;;;;;;4.20;100.00;103002.69;5084284;28;20132;-81
2023/04/03 01:08:22;;;;;;;4.95;1.90;;;;;;;4.17;100.00;103001.91;5082128;28;20318;-81
2023/04/03 01:10:47;;;;;;;4.60;1.80;;;;;;;4.15;100.00;103002.94;5084774;28;20029;-82
2023/04/03 01:13:28;;;;;;;7.22;1.88;;;;;;;4.15;100.00;103005.63;5082166;28;20016;-81
2023/04/03 01:15:54;;;;;;;4.60;1.83;;;;;;;4.11;100.00;103004.94;5079280;28;20024;-81
2023/04/03 01:18:20;;;;;;;5.85;2.28;;;;;;;4.08;100.00;103004.25;5079295;28;20043;-80
2023/04/03 01:20:52;;;;;;;5.47;1.75;;;;;;;4.02;100.00;103005.44;5056733;28;20083;-82
2023/04/03 01:23:36;;;;;;;3.92;1.75;;;;;;;4.03;100.00;103007.19;5057419;28;20027;-80
2023/04/03 01:26:02;;;;;;;6.10;1.98;;;;;;;3.97;100.00;103012.84;5057263;28;20040;-80
2023/04/03 01:28:35;;;;;;;2.92;1.50;;;;;;;3.95;100.00;103004.09;5074272;28;20557;-80
2023/04/03 01:31:26;;;;;;;5.20;2.15;;;;;;;3.94;100.00;103007.69;5077157;28;20025;-81
2023/04/03 01:33:51;;;;;;;3.83;1.60;;;;;;;3.91;100.00;103010.53;5075477;28;20105;-81
2023/04/03 01:36:20;;;;;;;3.83;1.90;;;;;;;3.93;100.00;103004.16;5077211;28;20028;-79
2023/04/03 01:38:46;;;;;;;4.93;1.92;;;;;;;3.89;100.00;102999.09;5082440;28;20086;-79
2023/04/03 01:41:11;;;;;;;3.33;1.73;;;;;;;3.88;100.00;103008.88;5080453;28;20461;-79
2023/04/03 01:43:37;;;;;;;5.13;2.03;;;;;;;3.85;100.00;103005.53;5082818;28;20249;-78
2023/04/03 01:46:02;;;;;;;4.40;1.85;;;;;;;3.78;100.00;103001.50;5069026;28;20040;-79
2023/04/03 01:48:27;;;;;;;5.03;1.75;;;;;;;3.76;100.00;103008.69;5063283;28;20031;-79
2023/04/03 01:50:53;;;;;;;5.35;1.73;;;;;;;3.66;100.00;103009.22;5064420;28;20021;-80
2023/04/03 01:53:19;;;;;;;6.45;1.80;;;;;;;3.69;100.00;103009.06;5081017;28;20059;-78
2023/04/03 01:55:44;;;;;;;5.55;2.60;;;;;;;3.69;100.00;103008.19;5079563;28;20365;-80
2023/04/03 01:58:09;;;;;;;4.90;2.13;;;;;;;3.69;100.00;103010.84;5083868;28;20025;-81
2023/04/03 02:00:35;;;;;;;8.07;2.70;;;;;;;3.62;100.00;103017.44;5076276;28;20021;-80
2023/04/03 02:03:01;;;;;;;6.93;2.40;;;;;;;3.58;100.00;103011.44;5056511;28;20029;-81
2023/04/03 02:05:26;;;;;;;4.03;1.90;;;;;;;3.56;100.00;103016.00;5055492;28;20024;-81
2023/04/03 02:07:52;;;;;;;5.25;1.95;;;;;;;3.63;100.00;103019.16;5057652;28;20032;-79
2023/04/03 02:10:17;;;;;;;5.13;1.90;;;;;;;3.59;100.00;103018.47;5075619;28;20028;-80
2023/04/03 02:12:42;;;;;;;4.10;2.20;;;;;;;3.58;100.00;103023.88;5081168;28;20028;-80
2023/04/03 02:15:08;;;;;;;3.05;1.30;;;;;;;3.58;100.00;103031.84;5081706;28;20020;-79
2023/04/03 02:17:35;;;;;;;3.10;2.10;;;;;;;3.54;100.00;103030.31;5080189;28;20056;-80
2023/04/03 02:20:00;;;;;;;5.75;1.83;;;;;;;3.47;100.00;103029.78;5064417;28;20036;-79
2023/04/03 02:22:26;;;;;;;5.85;1.80;;;;;;;3.40;100.00;103036.38;5064352;28;20029;-80
2023/04/03 02:24:51;;;;;;;4.50;1.83;;;;;;;3.42;100.00;103043.34;5077927;28;20352;-79
2023/04/03 02:27:17;;;;;;;6.50;1.90;;;;;;;3.42;100.00;103038.03;5080019;28;20480;-78
2023/04/03 02:29:42;;;;;;;8.18;2.15;;;;;;;3.40;100.00;103034.59;5077472;28;20086;-78
2023/04/03 02:32:08;;;;;;;4.75;2.13;;;;;;;3.38;100.00;103038.25;5079839;28;20097;-79
2023/04/03 02:34:33;;;;;;;5.85;1.95;;;;;;;3.40;100.00;103052.38;5076656;28;20052;-80
2023/04/03 02:36:58;;;;;;;3.75;1.90;;;;;;;3.35;100.00;103052.59;5075323;28;20445;-80
2023/04/03 02:39:24;;;;;;;7.28;2.00;;;;;;;3.36;100.00;103040.13;5076918;28;20059;-80
2023/04/03 02:41:49;;;;;;;5.18;1.70;;;;;;;3.34;100.00;103042.88;5077962;28;20375;-80
2023/04/03 02:44:15;;;;;;;6.95;1.80;;;;;;;3.32;100.00;103044.78;5077589;28;20025;-80
2023/04/03 02:46:40;;;;;;;4.25;1.63;;;;;;;3.26;100.00;103037.94;5077967;28;20036;-78
2023/04/03 02:49:06;;;;;;;4.25;1.95;;;;;;;3.22;100.00;103041.72;5080794;28;20437;-80
2023/04/03 02:51:31;;;;;;;4.90;1.80;;;;;;;3.19;100.00;103049.03;5085966;28;20388;-81
2023/04/03 02:53:57;;;;;;;4.63;2.03;;;;;;;3.16;100.00;103046.50;5069438;28;20060;-80
2023/04/03 02:56:22;;;;;;;5.32;2.67;;;;;;;3.12;100.00;103040.47;5063018;28;20037;-81
2023/04/03 02:58:47;;;;;;;4.22;1.80;;;;;;;3.10;100.00;103049.47;5068095;28;20100;-83
2023/04/03 03:01:13;;;;;;;3.65;2.15;;;;;;;3.07;100.00;103040.72;5065124;28;20037;-79
2023/04/03 03:03:39;;;;;;;3.83;2.03;;;;;;;3.06;100.00;103041.66;5064561;28;20028;-82
2023/04/03 03:06:10;;;;;;;3.83;2.05;;;;;;;3.01;100.00;103048.16;5067199;28;20096;-80
2023/04/03 03:08:35;;;;;;;5.85;2.22;;;;;;;3.01;100.00;103050.81;5083778;28;20039;-80
2023/04/03 03:11:02;;;;;;;4.10;1.60;;;;;;;2.98;100.00;103053.66;5083932;28;20095;-80
2023/04/03 03:13:27;;;;;;;7.05;2.30;;;;;;;2.98;100.00;103048.31;5086566;28;20056;-79
2023/04/03 03:15:52;;;;;;;4.22;1.92;;;;;;;2.94;100.00;103054.72;5086546;28;20036;-80
2023/04/03 03:18:18;;;;;;;6.63;2.17;;;;;;;2.95;100.00;103053.78;5088532;28;20024;-80
2023/04/03 03:20:43;;;;;;;6.22;2.30;;;;;;;2.89;100.00;103048.78;5088978;28;20052;-79
2023/04/03 03:23:09;;;;;;;7.55;2.20;;;;;;;2.91;100.00;103046.91;5086589;28;20075;-80
2023/04/03 03:25:38;;;;;;;6.28;2.13;;;;;;;2.93;100.00;103045.88;5086907;28;20036;-80
2023/04/03 03:28:04;;;;;;;5.03;2.20;;;;;;;2.90;100.00;103047.81;5084964;28;20090;-80
2023/04/03 03:30:30;;;;;;;6.13;2.13;;;;;;;2.84;100.00;103047.22;5084787;28;20024;-81
2023/04/03 03:32:55;;;;;;;5.70;2.53;;;;;;;2.81;100.00;103055.34;5074757;28;20058;-80
2023/04/03 03:35:21;;;;;;;8.43;2.40;;;;;;;2.74;100.00;103061.03;5086887;28;20043;-80
2023/04/03 03:37:47;;;;;;;6.60;2.55;;;;;;;2.76;100.00;103060.03;5086152;28;20032;-79
2023/04/03 03:40:13;;;;;;;3.45;2.10;;;;;;;2.80;100.00;103060.75;5085540;28;20039;-80
2023/04/03 03:42:39;;;;;;;5.57;2.17;;;;;;;2.79;100.00;103065.22;5085120;28;20025;-79
2023/04/03 03:45:05;;;;;;;4.03;2.10;;;;;;;2.75;100.00;103058.31;5082345;28;20594;-80
2023/04/03 03:47:30;;;;;;;5.47;1.70;;;;;;;2.72;100.00;103069.09;5082927;28;20032;-78
2023/04/03 03:49:56;;;;;;;4.63;2.05;;;;;;;2.73;100.00;103060.19;5085210;28;20044;-81
2023/04/03 03:52:21;;;;;;;10.32;2.53;;;;;;;2.70;100.00;103070.97;5070776;28;20043;-81
2023/04/03 03:54:46;;;;;;;9.73;2.20;;;;;;;2.70;100.00;103067.47;5086696;28;20388;-81
2023/04/03 03:57:12;;;;;;;7.40;2.47;;;;;;;2.68;100.00;103077.31;5084229;28;20059;-79
2023/04/03 03:59:37;;;;;;;5.40;1.70;;;;;;;2.66;100.00;103069.41;5077613;28;20029;-80
2023/04/03 04:02:03;;;;;;;6.78;2.30;;;;;;;2.64;100.00;103071.28;5079030;28;20017;-80
2023/04/03 04:04:28;;;;;;;5.28;2.47;;;;;;;2.60;100.00;103069.69;5084847;28;20259;-82
2023/04/03 04:06:53;;;;;;;4.75;1.92;;;;;;;2.60;100.00;103075.88;5092518;28;20025;-83
2023/04/03 04:09:19;;;;;;;11.93;2.22;;;;;;;2.58;100.00;103071.56;5089910;28;20081;-84
2023/04/03 04:11:44;;;;;;;5.25;2.22;;;;;;;2.52;100.00;103067.41;5071788;28;20032;-83
2023/04/03 04:14:12;;;;;;;7.97;2.40;;;;;;;2.53;100.00;103073.63;5071041;28;20073;-82
2023/04/03 04:16:39;;;;;;;10.32;2.65;;;;;;;2.52;100.00;103067.41;5072058;28;20066;-82
2023/04/03 04:19:04;;;;;;;9.32;2.10;;;;;;;2.59;100.00;103068.00;5086541;28;20037;-82
2023/04/03 04:21:30;;;;;;;5.68;2.30;;;;;;;2.57;100.00;103075.16;5077854;28;20017;-82
2023/04/03 04:23:55;;;;;;;5.18;2.25;;;;;;;2.54;100.00;103075.31;5071752;28;20013;-82
2023/04/03 04:26:20;;;;;;;5.65;2.95;;;;;;;2.49;100.00;103080.84;5071400;28;20057;-82
2023/04/03 04:28:46;;;;;;;10.40;2.30;;;;;;;2.49;100.00;103072.88;5072590;28;20012;-83
2023/04/03 04:31:11;;;;;;;5.57;2.08;;;;;;;2.50;100.00;103084.38;5074262;28;20040;-82
2023/04/03 04:33:37;;;;;;;6.15;3.08;;;;;;;2.52;100.00;103083.38;5074362;28;20028;-81
2023/04/03 04:36:02;;;;;;;9.43;3.05;;;;;;;2.41;100.00;103086.53;5073475;28;20120;-83
2023/04/03 04:38:27;;;;;;;3.42;2.17;;;;;;;2.40;100.00;103079.50;5080523;28;20037;-77
2023/04/03 04:40:53;;;;;;;6.07;2.47;;;;;;;2.39;100.00;103075.13;5086994;28;20082;-82
2023/04/03 04:43:18;;;;;;;6.53;2.50;;;;;;;2.37;100.00;103079.66;5084896;28;20501;-81
2023/04/03 04:45:44;;;;;;;14.65;2.80;;;;;;;2.29;100.00;103081.84;5060946;28;20032;-82
2023/04/03 04:48:09;;;;;;;10.77;3.42;;;;;;;2.34;100.00;103090.44;5058984;28;20033;-83
2023/04/03 04:50:35;;;;;;;6.15;2.78;;;;;;;2.34;100.00;103090.44;5065042;28;20035;-82
2023/04/03 04:53:00;;;;;;;4.43;2.50;;;;;;;2.32;100.00;103091.44;5079693;28;20029;-82
2023/04/03 04:55:25;;;;;;;14.50;2.88;;;;;;;2.36;100.00;103095.66;5078978;28;20028;-82
2023/04/03 04:57:51;;;;;;;11.00;3.00;;;;;;;2.28;100.00;103093.38;5074389;28;20028;-82
2023/04/03 05:00:17;;;;;;;7.05;2.67;;;;;;;2.28;100.00;103093.38;5083591;28;20364;-84
2023/04/03 05:02:42;;;;;;;7.18;3.05;;;;;;;2.29;100.00;103097.78;5079468;28;20376;-81
2023/04/03 05:05:08;;;;;;;7.25;2.53;;;;;;;2.30;100.00;103096.81;5075474;28;20065;-84
2023/04/03 05:07:35;;;;;;;10.25;3.10;;;;;;;2.28;100.00;103098.69;5078373;28;20033;-82
2023/04/03 05:10:01;;;;;;;5.90;2.65;;;;;;;2.23;100.00;103100.69;5083185;28;20032;-82
2023/04/03 05:12:26;;;;;;;8.02;3.42;;;;;;;2.20;100.00;103093.72;5080819;28;20032;-83
2023/04/03 05:14:51;;;;;;;6.22;2.90;;;;;;;2.13;100.00;103102.94;5084344;28;20488;-80
2023/04/03 05:17:17;;;;;;;8.23;3.05;;;;;;;2.15;100.00;103106.38;5083620;28;20039;-82
2023/04/03 05:19:42;;;;;;;12.77;3.00;;;;;;;2.24;100.00;103102.44;5080721;28;20037;-81
2023/04/03 05:22:07;;;;;;;6.00;2.72;;;;;;;2.26;100.00;103105.00;5078987;28;20025;-82
2023/04/03 05:24:33;;;;;;;9.88;2.85;;;;;;;2.20;100.00;103100.84;5080955;28;20052;-83
2023/04/03 05:26:58;;;;;;;5.22;2.67;;;;;;;2.24;100.00;103107.75;5087879;28;20128;-81
2023/04/03 05:29:24;;;;;;;5.05;2.67;;;;;;;2.19;100.00;103105.31;5066667;28;20078;-81
2023/04/03 05:31:50;;;;;;;9.93;2.83;;;;;;;2.21;100.00;103110.53;5070504;28;20056;-80
2023/04/03 05:34:15;;;;;;;8.57;3.67;;;;;;;2.25;100.00;103117.44;5063725;28;20024;-82
2023/04/03 05:36:41;;;;;;;6.13;3.22;;;;;;;2.24;100.00;103109.53;5069757;28;20025;-82
2023/04/03 05:39:06;;;;;;;14.80;3.40;;;;;;;2.30;100.00;103107.47;5061937;28;20032;-82
2023/04/03 05:41:32;;;;;;;9.30;3.05;;;;;;;2.26;100.00;103110.31;5058024;28;20029;-83
2023/04/03 05:43:57;;;;;;;8.75;2.97;;;;;;;2.27;100.00;103107.59;5077550;28;20145;-81
2023/04/03 05:46:22;;;;;;;7.18;3.05;;;;;;;2.32;100.00;103118.03;5067204;28;20052;-81
2023/04/03 05:48:48;;;;;;;9.52;3.33;;;;;;;2.46;100.00;103110.25;5055973;28;20063;-80
2023/04/03 05:51:16;;;;;;;11.18;3.58;;;;;;;3.07;100.00;103109.03;5065145;28;20032;-82
2023/04/03 05:53:42;;;;;;;11.65;3.30;;;;;;;3.80;100.00;103124.81;5066079;28;20523;-82
2023/04/03 05:56:07;;;;;;;13.05;3.40;;;;;;;4.49;100.00;103107.69;5056258;28;20089;-82
2023/04/03 05:58:33;;;;;;;20.08;3.47;;;;;;;5.25;100.00;103110.38;5067272;28;20239;-80
2023/04/03 06:00:58;;;;;;;6.53;3.28;;;;;;;5.76;100.00;103110.81;5074496;28;20036;-80
2023/04/03 06:03:24;;;;;;;7.78;3.15;;;;;;;5.67;100.00;103108.75;5059387;28;20104;-79
2023/04/03 06:05:50;;;;;;;7.68;3.17;;;;;;;5.38;100.00;103114.03;5055529;28;20064;-80
2023/04/03 06:08:15;;;;;;;11.70;3.10;;;;;;;5.10;100.00;103124.63;5055825;28;20037;-80
2023/04/03 06:10:41;;;;;;;12.30;3.22;;;;;;;5.15;100.00;103126.06;5055684;28;20489;-80
2023/04/03 06:13:06;;;;;;;8.20;3.03;;;;;;;5.42;100.00;103122.72;5069061;28;20036;-80
2023/04/03 06:15:32;;;;;;;7.20;2.97;;;;;;;5.42;100.00;103123.56;5075214;28;20158;-80
2023/04/03 06:17:57;;;;;;;8.55;3.05;;;;;;;5.20;100.00;103128.47;5066764;28;20037;-79
2023/04/03 06:20:23;;;;;;;8.23;3.45;;;;;;;4.87;100.00;103125.97;5076189;28;20017;-81
2023/04/03 06:22:49;;;;;;;9.68;3.30;;;;;;;4.74;100.00;103133.81;5076057;28;20028;-80
2023/04/03 06:25:14;;;;;;;12.18;3.33;;;;;;;4.61;100.00;103145.19;5071697;28;20524;-80
2023/04/03 06:27:40;;;;;;;7.88;3.40;;;;;;;4.42;100.00;103143.63;5058508;28;20125;-81
2023/04/03 06:30:06;;;;;;;9.02;4.07;;;;;;;4.41;100.00;103142.78;5057160;28;20029;-80
2023/04/03 06:32:32;;;;;;;11.77;3.83;;;;;;;4.36;100.00;103152.84;5056272;28;20036;-81
2023/04/03 06:34:58;;;;;;;8.88;2.80;;;;;;;4.27;100.00;103142.69;5055425;28;20021;-81
2023/04/03 06:37:25;;;;;;;11.55;3.67;;;;;;;4.07;100.00;103147.28;5057561;28;20055;-80
2023/04/03 06:39:51;;;;;;;12.48;3.33;;;;;;;3.99;100.00;103146.84;5056980;28;20032;-81
2023/04/03 06:42:16;;;;;;;6.05;2.95;;;;;;;4.03;100.00;103148.41;5064644;28;20039;-80
2023/04/03 06:44:42;;;;;;;12.25;3.53;;;;;;;3.98;100.00;103150.47;5077432;28;20116;-80
2023/04/03 06:47:11;;;;;;;9.65;3.58;;;;;;;4.02;100.00;103154.66;5076256;28;20319;-81
2023/04/03 06:49:36;;;;;;;12.68;3.25;;;;;;;4.30;100.00;103142.50;5077534;28;20024;-80
2023/04/03 06:52:02;;;;;;;7.60;3.35;;;;;;;5.15;100.00;103141.25;5076874;28;20164;-79
2023/04/03 06:54:28;;;;;;;10.18;2.75;;;;;;;6.23;100.00;103135.59;5077522;28;20479;-79
2023/04/03 06:56:53;;;;;;;9.23;2.80;;;;;;;7.31;100.00;103140.97;5080545;28;20039;-79
2023/04/03 06:59:19;;;;;;;10.73;3.50;;;;;;;8.39;100.00;103141.47;5096286;28;20051;-80
2023/04/03 07:01:44;;;;;;;7.35;3.13;;;;;;;9.54;98.44;103140.94;5081317;28;20040;-80
2023/04/03 07:04:10;;;;;;;8.40;3.33;;;;;;;10.33;88.10;103140.03;5077082;28;20023;-80
2023/04/03 07:06:36;;;;;;;13.35;3.35;;;;;;;11.09;82.13;103150.88;5081978;28;20030;-81
2023/04/03 07:09:02;;;;;;;12.52;2.95;;;;;;;11.61;77.34;103149.13;5081486;28;20036;-79
2023/04/03 07:11:28;;;;;;;9.13;3.17;;;;;;;11.82;74.81;103153.63;5062520;28;20334;-81
2023/04/03 07:13:53;;;;;;;11.35;3.40;;;;;;;11.89;73.79;103159.41;5063684;28;20025;-78
2023/04/03 07:16:19;;;;;;;8.85;3.25;;;;;;;12.23;71.43;103159.97;5077989;28;20054;-80
2023/04/03 07:18:45;;;;;;;11.88;3.20;;;;;;;12.03;70.20;103165.31;5082151;28;20045;-77
2023/04/03 07:21:10;;;;;;;10.80;3.22;;;;;;;12.00;70.71;103168.25;5081698;28;20052;-79
2023/04/03 07:23:37;;;;;;;8.70;3.47;;;;;;;11.96;70.83;103172.22;5082287;28;20055;-81
2023/04/03 07:26:02;;;;;;;10.55;3.42;;;;;;;12.01;70.08;103172.69;5081721;28;20453;-81
2023/04/03 07:28:27;;;;;;;14.68;3.28;;;;;;;11.78;71.07;103173.78;5082050;28;20068;-81
2023/04/03 07:30:59;;;;;;;8.43;3.10;;;;;;;12.49;69.33;103180.13;5081533;28;20031;-81
2023/04/03 07:33:26;;;;;;;11.68;3.25;;;;;;;12.54;67.46;103176.16;5082606;28;20043;-81
2023/04/03 07:35:51;;;;;;;10.70;3.08;;;;;;;12.28;67.51;103179.34;5081976;28;20411;-79
2023/04/03 07:38:16;;;;;;;14.05;3.63;;;;;;;11.97;68.39;103182.00;5082940;28;20028;-78
2023/04/03 07:40:49;;;;;;;11.90;3.58;;;;;;;12.35;68.59;103177.81;5081449;28;20021;-80
2023/04/03 07:43:15;;;;;;;11.38;3.10;;;;;;;12.26;67.41;103173.19;5086350;28;20461;-80
2023/04/03 07:45:41;;;;;;;8.25;2.88;;;;;;;12.45;68.99;103181.41;5088861;28;20509;-80
2023/04/03 07:48:06;;;;;;;7.88;3.92;;;;;;;12.93;66.41;103177.09;5088058;28;20024;-78
2023/04/03 07:50:32;;;;;;;7.75;3.17;;;;;;;13.42;64.97;103182.53;5083995;28;20420;-78
2023/04/03 07:52:58;;;;;;;9.57;3.28;;;;;;;13.79;61.54;103186.16;5086301;28;20036;-79
2023/04/03 07:55:24;;;;;;;6.95;2.63;;;;;;;13.45;59.23;103185.78;5086507;28;20021;-79
2023/04/03 07:57:49;;;;;;;8.98;2.90;;;;;;;13.23;59.26;103195.03;5086293;28;20028;-80
2023/04/03 08:00:17;;;;;;;13.82;3.20;;;;;;;13.39;58.92;103186.38;5088739;28;20037;-80
2023/04/03 08:02:44;;;;;;;10.45;3.05;;;;;;;13.53;56.88;103193.19;5086501;28;20035;-80
2023/04/03 08:05:10;;;;;;;11.67;2.93;;;;;;;13.47;56.10;103205.44;5085408;28;20062;-78
2023/04/03 08:07:36;;;;;;;10.15;2.35;;;;;;;12.72;55.13;103209.63;5088566;28;20046;-79
2023/04/03 08:10:02;;;;;;;9.65;2.60;;;;;;;12.99;56.19;103213.53;5086555;28;20032;-81
2023/04/03 08:12:28;;;;;;;8.95;2.53;;;;;;;12.72;56.65;103209.63;5085027;28;20039;-80
2023/04/03 08:14:53;;;;;;;8.50;3.20;;;;;;;14.13;55.88;103207.31;5081188;28;20024;-80
2023/04/03 08:17:19;;;;;;;8.10;3.10;;;;;;;14.70;54.28;103205.38;5080342;28;20093;-80
2023/04/03 08:19:44;;;;;;;7.78;2.80;;;;;;;15.27;52.89;103210.56;5082504;28;20029;-79
2023/04/03 08:22:10;;;;;;;7.80;2.60;;;;;;;15.20;52.11;103208.63;5083697;28;20054;-81
2023/04/03 08:24:35;;;;;;;10.43;2.70;;;;;;;15.40;51.76;103203.88;5081573;28;20028;-79
2023/04/03 08:27:01;;;;;;;13.30;3.22;;;;;;;15.55;52.32;103211.31;5080532;28;20357;-79
2023/04/03 08:29:26;;;;;;;10.18;2.88;;;;;;;15.67;50.91;103205.66;5082136;28;20070;-80
2023/04/03 08:31:52;;;;;;;10.77;2.97;;;;;;;15.86;50.64;103201.91;5085757;28;20037;-79
2023/04/03 08:34:18;;;;;;;9.50;3.03;;;;;;;15.59;49.15;103204.56;5084868;28;20035;-79
2023/04/03 08:36:44;;;;;;;12.13;3.38;;;;;;;15.55;49.28;103208.59;5084249;28;20037;-79
2023/04/03 08:39:09;;;;;;;7.95;2.92;;;;;;;15.72;49.53;103208.78;5084795;28;20028;-79
2023/04/03 08:41:41;;;;;;;10.85;2.70;;;;;;;16.33;47.54;103209.66;5084165;28;20053;-79
2023/04/03 08:44:17;;;;;;;6.38;1.95;;;;;;;15.86;44.88;103215.47;5085612;28;20028;-79
2023/04/03 08:47:02;;;;;;;23.15;3.45;;;;;;;15.26;46.77;103208.00;5084397;28;20083;-79
2023/04/03 08:49:32;;;;;;;23.95;3.40;;;;;;;15.41;47.91;103211.88;5081914;28;20024;-79
2023/04/03 08:52:00;;;;;;;9.40;2.75;;;;;;;15.55;48.40;103210.44;5082608;28;20029;-79
2023/04/03 08:54:32;;;;;;;10.73;2.50;;;;;;;15.72;46.92;103215.06;5082138;28;20024;-80
2023/04/03 08:56:58;;;;;;;8.52;2.75;;;;;;;16.51;47.14;103206.81;5081330;28;20087;-78
2023/04/03 08:59:29;;;;;;;6.85;2.50;;;;;;;16.50;46.71;103207.84;5081370;28;20075;-81
2023/04/03 09:01:56;;;;;;;7.70;2.70;;;;;;;16.76;44.69;103200.47;5082010;28;20025;-80
2023/04/03 09:04:22;;;;;;;7.75;2.65;;;;;;;15.87;44.70;103201.72;5083733;28;20064;-79
2023/04/03 09:06:55;;;;;;;5.35;2.25;;;;;;;15.57;46.59;103200.31;5082554;28;20048;-77
2023/04/03 09:09:30;;;;;;;5.95;2.33;;;;;;;15.85;47.33;103201.06;5081511;28;20035;-78
2023/04/03 09:12:38;;;;;;;9.52;2.80;;;;;;;16.37;45.85;103201.00;5085933;28;20024;-79
2023/04/03 09:15:15;;;;;;;8.45;2.50;;;;;;;16.08;43.64;103204.06;5008749;28;20030;-82
2023/04/03 09:18:02;;;;;;;6.20;2.15;;;;;;;15.90;44.59;103201.41;5024118;28;20426;-80
2023/04/03 09:20:46;;;;;;;10.75;2.20;;;;;;;15.46;43.14;103209.53;5068718;28;20036;-79
2023/04/03 09:23:18;;;;;;;10.30;2.20;;;;;;;15.92;43.03;103210.25;5088190;28;20031;-80
2023/04/03 09:25:44;;;;;;;5.85;1.77;;;;;;;16.38;41.25;103205.44;5090232;28;20028;-79
2023/04/03 09:28:09;;;;;;;5.40;2.35;;;;;;;16.28;40.07;103206.56;5088714;28;20109;-79
2023/04/03 09:30:35;;;;;;;6.13;2.42;;;;;;;16.57;37.83;103201.59;5090979;28;20157;-78
2023/04/03 09:33:01;;;;;;;4.32;2.03;;;;;;;16.17;35.12;103203.13;5088823;28;20029;-79
2023/04/03 09:35:32;;;;;;;5.72;1.67;;;;;;;16.56;37.24;103186.31;5092139;28;20035;-79
2023/04/03 09:38:08;;;;;;;12.70;2.00;;;;;;;16.78;37.35;103195.75;5091006;28;20029;-79
2023/04/03 09:40:39;;;;;;;4.20;1.30;;;;;;;16.58;30.54;103178.81;5092029;28;20025;-78
2023/04/03 09:43:16;;;;;;;8.25;1.60;;;;;;;15.62;29.10;103181.69;5092462;28;20036;-80
2023/04/03 09:45:43;;;;;;;5.63;1.25;;;;;;;15.09;28.95;103188.00;5091125;28;20027;-79
2023/04/03 09:48:16;;;;;;;6.90;1.70;;;;;;;14.88;28.78;103178.31;5092090;28;20033;-79
2023/04/03 09:50:55;;;;;;;9.32;1.20;;;;;;;14.22;28.33;103182.06;5090913;28;20028;-81
2023/04/03 09:53:36;;;;;;;2.75;1.20;;;;;;;13.92;28.92;103176.88;5092426;28;20103;-82
2023/04/03 09:56:16;;;;;;;3.03;1.15;;;;;;;14.92;29.45;103184.25;5087353;28;20112;-80
2023/04/03 09:58:44;;;;;;;3.55;1.27;;;;;;;14.30;29.31;103172.31;5081996;28;20048;-79
2023/04/03 10:01:31;;;;;;;4.85;1.40;;;;;;;13.50;29.17;103169.13;5081352;28;20032;-79
2023/04/03 10:04:12;;;;;;;3.08;1.33;;;;;;;13.84;30.70;103154.09;5080483;28;20108;-79
2023/04/03 10:06:50;;;;;;;6.13;1.58;;;;;;;14.30;29.98;103156.94;5080408;28;20069;-80
2023/04/03 10:09:19;;;;;;;3.00;1.00;;;;;;;14.13;29.26;103155.84;5084104;28;20028;-78
2023/04/03 10:12:08;;;;;;;7.72;1.70;;;;;;;14.31;29.74;103150.50;5090462;28;20047;-76
2023/04/03 10:14:35;;;;;;;2.55;0.85;;;;;;;14.22;28.36;103154.97;5090465;28;20021;-79
2023/04/03 10:17:11;;;;;;;6.22;0.90;;;;;;;13.57;27.74;103140.50;5091007;28;20112;-79
2023/04/03 10:20:06;;;;;;;3.85;1.00;;;;;;;12.84;28.41;103157.16;5090748;28;20047;-77
2023/04/03 10:22:49;;;;;;;1.40;1.05;;;;;;;12.66;29.09;103153.41;5093059;28;20024;-79
2023/04/03 10:25:29;;;;;;;2.05;0.95;;;;;;;12.41;29.34;103155.63;5091613;28;20084;-80
2023/04/03 10:28:12;;;;;;;2.33;0.90;;;;;;;11.32;30.42;103145.34;5092325;28;20045;-81
2023/04/03 10:31:19;;;;;;;4.10;1.23;;;;;;;11.98;32.04;103147.78;5092165;28;20048;-80
2023/04/03 10:34:02;;;;;;;1.73;0.75;;;;;;;11.85;30.79;103142.59;5092109;28;20088;-79
2023/04/03 10:36:55;;;;;;;6.85;0.90;;;;;;;10.97;32.11;103141.09;5083911;28;20046;-82
2023/04/03 10:40:03;;;;;;;3.72;1.05;;;;;;;11.63;33.08;103144.44;5082233;28;20025;-79
2023/04/03 10:42:51;;;;;;;3.25;0.95;;;;;;;11.80;32.03;103147.53;5044095;28;20036;-78
2023/04/03 10:45:20;;;;;;;5.25;0.98;;;;;;;12.02;31.39;103139.28;5082839;28;20044;-80
2023/04/03 10:47:58;;;;;;;3.85;0.95;;;;;;;12.07;30.88;103157.78;5082856;28;20020;-81
2023/04/03 10:50:48;;;;;;;2.05;0.95;;;;;;;12.09;30.99;103139.63;5080498;28;20076;-80
2023/04/03 10:53:35;;;;;;;2.42;1.00;;;;;;;12.58;30.80;103140.59;5081820;28;20025;-79
2023/04/03 10:56:20;;;;;;;4.80;1.20;;;;;;;12.45;30.33;103135.47;5080071;28;20036;-81
2023/04/03 10:58:49;;;;;;;7.43;1.45;;;;;;;12.31;30.45;103138.53;5082585;28;20075;-79
2023/04/03 11:01:20;;;;;;;3.72;0.80;;;;;;;12.54;30.16;103133.78;5097836;28;20111;-80
2023/04/03 11:03:47;;;;;;;7.97;1.20;;;;;;;12.54;31.08;103133.78;5080809;28;20056;-80
2023/04/03 11:06:16;;;;;;;1.75;1.05;;;;;;;12.81;29.58;103121.47;5082027;28;20024;-79
2023/04/03 11:08:54;;;;;;;4.43;1.30;;;;;;;13.27;29.82;103122.59;5081197;28;20154;-80
2023/04/03 11:11:32;;;;;;;2.83;1.00;;;;;;;14.18;28.93;103115.63;5083889;28;20025;-79
2023/04/03 11:14:16;;;;;;;2.72;0.90;;;;;;;14.46;29.82;103123.78;5065586;28;20020;-81
2023/04/03 11:16:51;;;;;;;4.88;1.50;;;;;;;14.71;27.97;103112.19;5079827;28;20338;-82
2023/04/03 11:19:35;;;;;;;8.27;1.48;;;;;;;15.28;26.62;103119.16;5079820;28;20036;-81
2023/04/03 11:22:09;;;;;;;5.85;1.25;;;;;;;15.67;26.21;103119.63;5079934;28;20154;-81
2023/04/03 11:24:36;;;;;;;5.68;1.10;;;;;;;15.63;26.70;103111.94;5081949;28;20152;-78
2023/04/03 11:27:04;;;;;;;3.53;1.20;;;;;;;14.63;27.34;103116.69;5064332;28;20037;-80
2023/04/03 11:29:34;;;;;;;4.53;0.98;;;;;;;15.08;28.04;103091.38;5079761;28;20020;-81